Time;durP1;ratioP1;P1;durP2;ratioP2;P2;SDS_P1;SDS_P2;PMS_P1;PMS_P2;Temp;Humidity;BMP_temperature;BMP_pressure;BME280_temperature;BME280_humidity;BME280_pressure;Samples;Min_cycle;Max_cycle;Signal;HPM_P1;HPM_P2
2023/12/06 00:04:52;;;;;;;85.43;39.60;;;;;;;-0.56;100.00;100858.38;10433456;28;20481;-75
2023/12/06 00:09:53;;;;;;;86.40;36.63;;;;;;;-0.55;100.00;100865.47;10392080;28;20037;-75
2023/12/06 00:14:53;;;;;;;84.37;39.10;;;;;;;-0.54;100.00;100856.31;10408301;28;20277;-74
2023/12/06 00:19:54;;;;;;;76.33;39.23;;;;;;;-0.52;100.00;100862.38;10437799;28;20045;-76
2023/12/06 00:24:54;;;;;;;83.50;38.03;;;;;;;-0.51;100.00;100852.44;10428879;28;20029;-75
2023/12/06 00:29:55;;;;;;;75.53;37.27;;;;;;;-0.66;100.00;100842.41;10419616;28;20041;-75
2023/12/06 00:34:55;;;;;;;74.27;38.00;;;;;;;-0.61;100.00;100842.69;10405861;28;20053;-74
2023/12/06 00:39:56;;;;;;;71.17;38.83;;;;;;;-0.53;100.00;100862.59;10415906;28;20102;-74
2023/12/06 00:44:56;;;;;;;82.50;39.90;;;;;;;-0.52;100.00;100875.06;10404079;28;20056;-74
2023/12/06 00:49:57;;;;;;;71.53;38.17;;;;;;;-0.58;100.00;100864.97;10415902;28;20102;-75
2023/12/06 00:54:57;;;;;;;74.00;36.60;;;;;;;-0.57;100.00;100877.50;10430062;28;20535;-76
2023/12/06 00:59:58;;;;;;;76.67;36.80;;;;;;;-0.56;100.00;100882.69;10441306;28;20394;-74
2023/12/06 01:04:58;;;;;;;72.80;35.13;;;;;;;-0.47;100.00;100886.19;10448467;28;20033;-73
2023/12/06 01:09:59;;;;;;;73.57;35.67;;;;;;;-0.47;100.00;100884.34;10429303;28;20040;-76
2023/12/06 01:14:59;;;;;;;74.40;37.80;;;;;;;-0.47;100.00;100888.91;10456434;28;20033;-77
2023/12/06 01:20:00;;;;;;;83.13;38.33;;;;;;;-0.45;100.00;100894.97;10457333;28;20045;-77
2023/12/06 01:25:00;;;;;;;81.30;40.33;;;;;;;-0.41;100.00;100896.28;10460255;28;20070;-77
2023/12/06 01:30:02;;;;;;;82.07;39.03;;;;;;;-0.42;100.00;100892.72;10422828;28;20044;-77
2023/12/06 01:35:03;;;;;;;83.43;36.53;;;;;;;-0.39;100.00;100888.84;10412239;28;20056;-74
2023/12/06 01:40:04;;;;;;;86.20;39.73;;;;;;;-0.36;100.00;100903.84;10478872;28;20036;-74
2023/12/06 01:45:05;;;;;;;77.60;37.00;;;;;;;-0.36;100.00;100904.69;10451388;28;20057;-74
2023/12/06 01:50:06;;;;;;;80.60;37.50;;;;;;;-0.43;100.00;100890.22;10407149;28;20063;-74
2023/12/06 01:55:07;;;;;;;78.63;38.23;;;;;;;-0.36;100.00;100920.91;10398377;28;20516;-74
2023/12/06 02:00:09;;;;;;;82.33;38.23;;;;;;;-0.35;100.00;100925.31;10422324;28;20485;-74
2023/12/06 02:05:09;;;;;;;73.90;37.40;;;;;;;-0.38;100.00;100914.84;10431036;28;20068;-73
2023/12/06 02:10:10;;;;;;;77.93;37.87;;;;;;;-0.32;100.00;100926.81;10414694;28;20056;-74
2023/12/06 02:15:11;;;;;;;72.68;36.08;;;;;;;-0.35;100.00;100922.63;10423357;28;20068;-74
2023/12/06 02:20:12;;;;;;;72.43;37.60;;;;;;;-0.38;100.00;100925.66;10431949;28;20037;-75
2023/12/06 02:25:13;;;;;;;76.37;38.90;;;;;;;-0.38;100.00;100920.25;10413457;28;20484;-74
2023/12/06 02:30:14;;;;;;;83.97;40.83;;;;;;;-0.30;100.00;100928.31;10397881;28;20065;-74
2023/12/06 02:35:26;;;;;;;81.40;38.33;;;;;;;-0.28;100.00;100931.69;10466065;28;20328;-74
2023/12/06 02:40:27;;;;;;;82.50;37.97;;;;;;;-0.29;100.00;100938.13;10412638;28;20518;-74
2023/12/06 02:45:27;;;;;;;85.20;37.93;;;;;;;-0.24;100.00;100932.16;10425926;28;20045;-74
2023/12/06 02:50:28;;;;;;;85.23;39.47;;;;;;;-0.27;100.00;100933.38;10446176;28;20044;-74
2023/12/06 02:55:28;;;;;;;91.57;41.67;;;;;;;-0.27;100.00;100937.91;10446273;28;20041;-75
2023/12/06 03:00:29;;;;;;;93.90;38.97;;;;;;;-0.28;100.00;100936.25;10414174;28;20045;-75
2023/12/06 03:05:29;;;;;;;89.27;40.63;;;;;;;-0.21;100.00;100938.06;10406318;28;20041;-74
2023/12/06 03:10:30;;;;;;;87.73;38.47;;;;;;;-0.19;100.00;100931.63;10409051;28;20037;-74
2023/12/06 03:15:30;;;;;;;84.97;40.57;;;;;;;-0.18;100.00;100930.59;10426543;28;20048;-74
2023/12/06 03:20:30;;;;;;;86.43;41.50;;;;;;;-0.15;100.00;100939.19;10461437;28;20049;-75
2023/12/06 03:25:32;;;;;;;86.40;38.97;;;;;;;-0.15;100.00;100938.34;10403620;28;20041;-75
2023/12/06 03:30:32;;;;;;;83.13;36.87;;;;;;;-0.13;100.00;100939.84;10411971;28;20052;-75
2023/12/06 03:35:33;;;;;;;82.50;37.57;;;;;;;-0.13;100.00;100944.41;10443983;28;20041;-75
2023/12/06 03:40:34;;;;;;;89.67;39.00;;;;;;;-0.15;100.00;100941.03;10421187;28;20464;-75
2023/12/06 03:45:35;;;;;;;86.83;39.13;;;;;;;-0.26;100.00;100929.63;10426342;28;20061;-75
2023/12/06 03:50:36;;;;;;;81.93;37.03;;;;;;;-0.16;100.00;100942.09;10411599;28;20394;-75
2023/12/06 03:55:37;;;;;;;82.53;37.40;;;;;;;-0.15;100.00;100944.59;10444231;28;20040;-75
2023/12/06 04:00:38;;;;;;;80.20;37.53;;;;;;;-0.12;100.00;100956.94;10444434;28;20043;-74
2023/12/06 04:05:44;;;;;;;82.53;36.77;;;;;;;-0.13;100.00;100960.66;10419700;28;20041;-74
2023/12/06 04:10:45;;;;;;;78.67;35.57;;;;;;;-0.12;100.00;100965.06;10408339;28;20052;-74
2023/12/06 04:15:45;;;;;;;74.33;33.37;;;;;;;-0.12;100.00;100967.75;10460647;28;20045;-74
2023/12/06 04:20:46;;;;;;;70.97;33.60;;;;;;;-0.12;100.00;100962.34;10426242;28;20045;-74
2023/12/06 04:25:47;;;;;;;68.03;33.50;;;;;;;-0.14;100.00;100958.97;10443084;28;20048;-74
2023/12/06 04:30:48;;;;;;;70.70;33.30;;;;;;;-0.13;100.00;100968.75;10423177;28;20056;-75
2023/12/06 04:35:48;;;;;;;68.67;32.47;;;;;;;-0.13;100.00;100982.28;10437590;28;20048;-76
2023/12/06 04:40:49;;;;;;;64.53;31.67;;;;;;;-0.47;100.00;100926.78;10408200;28;20121;-74
2023/12/06 04:45:50;;;;;;;70.87;33.13;;;;;;;-0.15;100.00;100987.88;10408984;28;20116;-76
2023/12/06 04:50:51;;;;;;;63.20;32.10;;;;;;;-0.14;100.00;100991.47;10424007;28;20044;-75
2023/12/06 04:55:51;;;;;;;69.50;33.40;;;;;;;-0.14;100.00;100992.28;10458514;28;20059;-73
2023/12/06 05:00:52;;;;;;;67.60;31.97;;;;;;;-0.15;100.00;100987.06;10410676;28;20049;-76
2023/12/06 05:05:53;;;;;;;65.97;32.03;;;;;;;-0.13;100.00;100993.94;10411425;28;20052;-75
2023/12/06 05:10:53;;;;;;;58.40;31.17;;;;;;;-0.13;100.00;100993.13;10422156;28;20044;-75
2023/12/06 05:15:54;;;;;;;62.72;28.98;;;;;;;-0.14;100.00;100988.75;10415156;28;20041;-74
2023/12/06 05:20:54;;;;;;;60.03;29.93;;;;;;;-0.15;100.00;100995.16;10405057;28;20033;-74
2023/12/06 05:25:55;;;;;;;55.27;29.87;;;;;;;-0.15;100.00;101006.00;10407733;28;20112;-74
2023/12/06 05:30:55;;;;;;;56.97;30.20;;;;;;;-0.16;100.00;101009.72;10417820;28;20037;-72
2023/12/06 05:35:56;;;;;;;59.37;29.67;;;;;;;-0.23;100.00;100999.63;10422198;28;20075;-73
2023/12/06 05:40:56;;;;;;;54.60;28.97;;;;;;;-0.16;100.00;101015.97;10440032;28;20044;-72
2023/12/06 05:45:57;;;;;;;54.90;28.43;;;;;;;-0.13;100.00;101020.19;10405497;28;20089;-72
2023/12/06 05:50:57;;;;;;;52.27;28.13;;;;;;;-0.18;100.00;101017.19;10439637;28;20092;-72
2023/12/06 05:55:58;;;;;;;56.13;28.10;;;;;;;-0.14;100.00;101024.75;10406667;28;20041;-72
2023/12/06 06:00:58;;;;;;;58.10;28.87;;;;;;;-0.06;100.00;101021.16;10426977;28;20033;-72
2023/12/06 06:06:05;;;;;;;56.83;28.13;;;;;;;-0.11;100.00;101012.72;10422083;28;20060;-73
2023/12/06 06:11:06;;;;;;;53.90;29.10;;;;;;;-0.02;100.00;101023.31;10440071;28;20489;-73
2023/12/06 06:16:06;;;;;;;52.80;28.07;;;;;;;0.02;100.00;101028.34;10413985;28;20038;-74
2023/12/06 06:21:07;;;;;;;44.60;26.77;;;;;;;0.04;100.00;101035.25;10451533;28;20104;-73
2023/12/06 06:26:09;;;;;;;49.33;27.17;;;;;;;0.08;100.00;101046.56;10405777;28;20041;-73
2023/12/06 06:31:09;;;;;;;49.23;27.07;;;;;;;0.08;100.00;101052.00;10422706;28;20045;-73
2023/12/06 06:36:10;;;;;;;46.97;27.07;;;;;;;0.11;100.00;101052.47;10406123;28;20040;-74
2023/12/06 06:41:10;;;;;;;51.73;26.03;;;;;;;0.13;100.00;101053.13;10439022;28;20057;-74
2023/12/06 06:46:11;;;;;;;47.80;26.53;;;;;;;0.15;100.00;101061.09;10397579;28;20037;-73
2023/12/06 06:51:11;;;;;;;43.47;25.03;;;;;;;0.15;100.00;101061.94;10405074;28;20041;-72
2023/12/06 06:56:12;;;;;;;47.60;27.27;;;;;;;0.17;100.00;101068.00;10415812;28;20048;-71
2023/12/06 07:01:12;;;;;;;53.07;26.93;;;;;;;0.17;100.00;101069.88;10406340;28;20045;-72
2023/12/06 07:06:12;;;;;;;45.37;26.63;;;;;;;0.22;100.00;101080.16;10420984;28;20033;-73
2023/12/06 07:11:13;;;;;;;49.07;25.73;;;;;;;0.22;100.00;101082.88;10410114;28;20045;-72
2023/12/06 07:16:13;;;;;;;45.50;26.43;;;;;;;0.19;100.00;101079.50;10422023;28;20102;-73
2023/12/06 07:21:14;;;;;;;54.60;27.20;;;;;;;0.23;100.00;101089.94;10427201;28;20056;-72
2023/12/06 07:26:14;;;;;;;54.60;26.57;;;;;;;0.15;100.00;101077.34;10433872;28;20044;-72
2023/12/06 07:31:15;;;;;;;43.27;24.93;;;;;;;0.24;100.00;101097.06;10426864;28;20504;-73
2023/12/06 07:36:15;;;;;;;45.73;25.80;;;;;;;0.25;100.00;101101.44;10426043;28;20546;-72
2023/12/06 07:41:16;;;;;;;46.43;25.43;;;;;;;0.24;100.00;101107.91;10428024;28;20037;-70
2023/12/06 07:46:16;;;;;;;47.77;26.10;;;;;;;0.26;100.00;101122.09;10427534;28;20053;-71
2023/12/06 07:51:17;;;;;;;47.10;27.03;;;;;;;0.27;100.00;101118.34;10442780;28;20048;-71
2023/12/06 07:56:17;;;;;;;43.90;26.10;;;;;;;0.20;100.00;101104.69;10436960;28;20029;-71
2023/12/06 08:01:17;;;;;;;49.80;27.17;;;;;;;0.14;100.00;101083.75;10423466;28;20059;-70
2023/12/06 08:06:18;;;;;;;48.20;26.60;;;;;;;0.32;100.00;101116.78;10410508;28;20450;-71
2023/12/06 08:11:22;;;;;;;50.67;26.90;;;;;;;0.37;100.00;101118.94;10426231;28;20042;-71
2023/12/06 08:16:22;;;;;;;53.40;29.00;;;;;;;0.37;100.00;101122.53;10443068;28;20035;-71
2023/12/06 08:21:24;;;;;;;48.37;28.50;;;;;;;0.41;100.00;101125.69;10441478;28;20033;-71
2023/12/06 08:26:24;;;;;;;54.43;27.40;;;;;;;0.45;100.00;101128.88;10428295;28;20119;-70
2023/12/06 08:31:25;;;;;;;49.93;27.40;;;;;;;0.46;100.00;101136.84;10441199;28;20132;-71
2023/12/06 08:36:25;;;;;;;50.97;27.77;;;;;;;0.49;100.00;101138.34;10409514;28;20037;-72
2023/12/06 08:41:26;;;;;;;56.43;29.10;;;;;;;0.29;100.00;101102.75;10401437;28;20110;-72
2023/12/06 08:46:26;;;;;;;51.38;28.95;;;;;;;0.51;100.00;101131.69;10401806;28;20033;-70
2023/12/06 08:51:27;;;;;;;50.53;28.20;;;;;;;0.56;100.00;101142.84;10396416;28;20051;-72
2023/12/06 08:56:28;;;;;;;50.27;28.77;;;;;;;0.62;100.00;101137.72;10420873;28;20041;-71
2023/12/06 09:01:29;;;;;;;50.27;28.90;;;;;;;0.68;100.00;101143.25;10412358;28;20045;-73
2023/12/06 09:06:29;;;;;;;54.10;29.40;;;;;;;0.67;100.00;101140.72;10377511;28;20037;-73
2023/12/06 09:11:29;;;;;;;54.20;28.17;;;;;;;0.73;100.00;101154.38;10384351;28;20042;-73
2023/12/06 09:16:30;;;;;;;47.17;28.60;;;;;;;0.62;100.00;101140.44;10384201;28;20087;-73
2023/12/06 09:21:45;;;;;;;51.33;28.97;;;;;;;0.69;100.00;101154.94;10380961;28;20289;-74
2023/12/06 09:26:45;;;;;;;49.13;27.43;;;;;;;0.71;100.00;101163.72;10398246;28;20042;-73
2023/12/06 09:31:46;;;;;;;43.80;25.70;;;;;;;0.69;100.00;101161.19;10381791;28;20041;-73
2023/12/06 09:36:46;;;;;;;49.03;26.70;;;;;;;0.79;100.00;101172.63;10399941;28;20037;-73
2023/12/06 09:41:47;;;;;;;40.97;24.47;;;;;;;0.72;100.00;101149.97;10416648;28;20042;-73
2023/12/06 09:46:47;;;;;;;46.47;25.07;;;;;;;-0.01;100.00;101059.34;10398307;28;20107;-73
2023/12/06 09:51:50;;;;;;;44.07;23.03;;;;;;;0.87;100.00;101182.56;10400028;28;20041;-73
2023/12/06 09:56:50;;;;;;;39.63;24.03;;;;;;;0.86;100.00;101170.03;10422975;28;20037;-73
2023/12/06 10:01:51;;;;;;;40.33;25.07;;;;;;;0.97;100.00;101185.88;10394757;28;20041;-73
2023/12/06 10:06:51;;;;;;;50.07;25.93;;;;;;;1.00;100.00;101179.22;10394986;28;20037;-73
2023/12/06 10:11:52;;;;;;;40.93;23.77;;;;;;;1.05;100.00;101187.63;10395108;28;20033;-71
2023/12/06 10:16:52;;;;;;;43.05;24.23;;;;;;;1.10;100.00;101189.81;10363424;28;21590;-74
2023/12/06 10:21:56;;;;;;;39.83;23.97;;;;;;;1.16;100.00;101195.34;10395720;28;20415;-74
2023/12/06 10:27:11;;;;;;;37.72;23.50;;;;;;;1.17;100.00;101182.63;10394528;28;20037;-74
2023/12/06 10:32:12;;;;;;;38.53;23.33;;;;;;;1.29;100.00;101193.88;10400489;28;20053;-74
2023/12/06 10:37:13;;;;;;;34.73;22.20;;;;;;;1.33;100.00;101206.03;10395154;28;20042;-74
2023/12/06 10:42:17;;;;;;;33.77;22.57;;;;;;;1.29;100.00;101210.97;10383814;28;20038;-74
2023/12/06 10:47:18;;;;;;;37.97;22.50;;;;;;;1.31;100.00;101205.38;10401254;28;20048;-73
2023/12/06 10:52:18;;;;;;;39.27;22.07;;;;;;;1.33;100.00;101206.84;10398393;28;20034;-74
2023/12/06 10:57:19;;;;;;;34.80;23.53;;;;;;;1.35;100.00;101199.38;10381547;28;20042;-73
2023/12/06 11:02:20;;;;;;;32.30;20.50;;;;;;;1.37;100.00;101196.50;10395580;28;20044;-73
2023/12/06 11:07:23;;;;;;;31.80;20.87;;;;;;;1.48;100.00;101217.72;10382819;28;20045;-74
2023/12/06 11:12:38;;;;;;;33.30;21.10;;;;;;;1.37;100.00;101205.47;10421044;28;20037;-75
2023/12/06 11:17:50;;;;;;;32.73;20.97;;;;;;;1.42;100.00;101200.31;10370883;28;20109;-74
2023/12/06 11:22:51;;;;;;;29.00;20.90;;;;;;;1.44;100.00;101210.16;10401621;28;20041;-74
2023/12/06 11:27:52;;;;;;;32.97;22.55;;;;;;;1.35;100.00;101206.69;10369988;28;20044;-73
2023/12/06 11:32:55;;;;;;;34.70;20.60;;;;;;;1.31;100.00;101208.91;10403181;28;20046;-74
2023/12/06 11:37:56;;;;;;;31.90;21.50;;;;;;;1.32;100.00;101198.91;10419257;28;20522;-73
2023/12/06 11:42:57;;;;;;;34.37;22.13;;;;;;;1.50;100.00;101206.69;10414434;28;20049;-73
2023/12/06 11:48:05;;;;;;;36.60;22.23;;;;;;;1.52;100.00;101215.50;10425947;28;20044;-73
2023/12/06 11:53:05;;;;;;;36.80;21.77;;;;;;;1.56;100.00;101208.66;10426334;28;20041;-73
2023/12/06 11:58:10;;;;;;;33.50;22.20;;;;;;;1.60;100.00;101191.81;10408915;28;20036;-73
2023/12/06 12:03:11;;;;;;;33.53;22.20;;;;;;;1.70;100.00;101205.09;10442014;28;20045;-73
2023/12/06 12:08:12;;;;;;;34.10;22.33;;;;;;;1.74;100.00;101200.97;10426237;28;20079;-73
2023/12/06 12:13:17;;;;;;;33.67;20.93;;;;;;;1.81;100.00;101210.03;10410541;28;20045;-73
2023/12/06 12:18:18;;;;;;;30.35;20.00;;;;;;;1.94;100.00;101224.81;10415651;28;20048;-74
2023/12/06 12:23:18;;;;;;;31.27;20.97;;;;;;;1.97;100.00;101235.31;10428881;28;20096;-74
2023/12/06 12:28:19;;;;;;;28.60;19.93;;;;;;;1.95;100.00;101210.22;10464960;28;20056;-73
2023/12/06 12:33:20;;;;;;;27.90;19.27;;;;;;;2.01;100.00;101225.78;10404631;28;20068;-74
2023/12/06 12:38:21;;;;;;;30.83;20.77;;;;;;;1.94;100.00;101219.41;10423254;28;20057;-74
2023/12/06 12:43:21;;;;;;;28.83;20.00;;;;;;;1.99;100.00;101244.13;10421625;28;20059;-73
2023/12/06 12:48:22;;;;;;;27.98;18.88;;;;;;;1.99;100.00;101249.56;10419445;28;20037;-74
2023/12/06 12:53:22;;;;;;;30.90;20.10;;;;;;;1.94;100.00;101246.53;10414053;28;20041;-74
2023/12/06 12:58:23;;;;;;;35.08;20.33;;;;;;;1.92;100.00;101260.34;10399089;28;20037;-75
2023/12/06 13:03:27;;;;;;;27.43;19.53;;;;;;;1.91;100.00;101252.38;10408164;28;20056;-73
2023/12/06 13:08:30;;;;;;;26.38;18.35;;;;;;;1.98;100.00;101264.16;10413513;28;20458;-74
2023/12/06 13:13:30;;;;;;;30.37;21.20;;;;;;;2.01;100.00;101258.34;10406558;28;20067;-73
2023/12/06 13:18:30;;;;;;;28.90;19.43;;;;;;;2.01;100.00;101259.19;10417075;28;20075;-74
2023/12/06 13:23:33;;;;;;;27.00;18.87;;;;;;;1.96;100.00;101258.06;10429896;28;20036;-73
2023/12/06 13:28:34;;;;;;;31.33;18.27;;;;;;;2.04;100.00;101268.81;10424772;28;20473;-72
2023/12/06 13:33:34;;;;;;;27.17;16.97;;;;;;;2.02;100.00;101273.59;10440078;28;20053;-72
2023/12/06 13:38:35;;;;;;;22.73;15.30;;;;;;;1.96;100.00;101282.50;10455751;28;20060;-71
2023/12/06 13:43:36;;;;;;;22.87;15.17;;;;;;;1.97;100.00;101289.63;10421237;28;21484;-72
2023/12/06 13:48:36;;;;;;;22.23;16.13;;;;;;;1.98;100.00;101288.59;10438862;28;20467;-72
2023/12/06 13:53:37;;;;;;;22.05;15.45;;;;;;;1.98;100.00;101294.03;10422875;28;20045;-72
2023/12/06 13:58:37;;;;;;;23.60;13.77;;;;;;;1.92;100.00;101292.06;10444676;28;20048;-71
2023/12/06 14:03:42;;;;;;;22.10;15.93;;;;;;;2.00;100.00;101300.09;10421707;28;20068;-72
2023/12/06 14:08:42;;;;;;;20.00;14.30;;;;;;;2.02;100.00;101293.44;10424921;28;20137;-72
2023/12/06 14:13:43;;;;;;;22.07;16.13;;;;;;;1.98;100.00;101304.88;10423834;28;20071;-71
2023/12/06 14:18:43;;;;;;;18.90;13.83;;;;;;;1.99;100.00;101310.13;10416651;28;20044;-71
2023/12/06 14:23:44;;;;;;;19.40;15.27;;;;;;;1.97;100.00;101322.22;10422561;28;20496;-72
2023/12/06 14:28:45;;;;;;;19.40;13.80;;;;;;;1.95;100.00;101324.28;10435954;28;20029;-72
2023/12/06 14:33:45;;;;;;;21.92;15.95;;;;;;;1.93;100.00;101326.34;10465184;28;20032;-73
2023/12/06 14:38:46;;;;;;;22.10;14.27;;;;;;;1.93;100.00;101331.78;10423777;28;20040;-74
2023/12/06 14:43:46;;;;;;;23.33;15.52;;;;;;;1.93;100.00;101337.19;10446802;28;20060;-72
2023/12/06 14:48:47;;;;;;;22.30;15.00;;;;;;;1.90;100.00;101348.41;10429176;28;20037;-72
2023/12/06 14:53:47;;;;;;;19.98;13.82;;;;;;;1.88;100.00;101350.47;10404563;28;20045;-71
2023/12/06 14:58:48;;;;;;;25.57;15.23;;;;;;;1.86;100.00;101347.09;10433782;28;20032;-71
2023/12/06 15:03:48;;;;;;;20.77;14.80;;;;;;;1.82;100.00;101343.94;10431505;28;20044;-72
2023/12/06 15:08:49;;;;;;;18.47;14.20;;;;;;;1.80;100.00;101346.81;10430669;28;20079;-73
2023/12/06 15:13:49;;;;;;;19.50;14.37;;;;;;;1.75;100.00;101362.81;10463113;28;20037;-72
2023/12/06 15:18:50;;;;;;;17.17;13.27;;;;;;;1.75;100.00;101372.84;10431391;28;20037;-73
2023/12/06 15:23:50;;;;;;;16.00;12.37;;;;;;;1.72;100.00;101384.91;10438308;28;20041;-73
2023/12/06 15:28:51;;;;;;;19.07;12.20;;;;;;;1.70;100.00;101376.09;10439293;28;20415;-73
2023/12/06 15:33:51;;;;;;;14.97;11.70;;;;;;;1.68;100.00;101382.75;10419629;28;20489;-73
2023/12/06 15:38:52;;;;;;;16.10;12.65;;;;;;;1.66;100.00;101382.09;10417062;28;20486;-73
2023/12/06 15:43:52;;;;;;;18.35;12.57;;;;;;;1.65;100.00;101389.38;10478526;28;20063;-73
2023/12/06 15:48:53;;;;;;;13.80;11.17;;;;;;;1.59;100.00;101396.41;10415279;28;20037;-73
2023/12/06 15:53:53;;;;;;;18.87;13.60;;;;;;;1.61;100.00;101398.91;10423916;28;20045;-73
2023/12/06 15:58:54;;;;;;;18.60;13.10;;;;;;;1.59;100.00;101396.41;10420323;28;20496;-72
2023/12/06 16:03:54;;;;;;;14.63;10.60;;;;;;;1.57;100.00;101408.44;10422489;28;20088;-72
2023/12/06 16:08:54;;;;;;;23.40;14.20;;;;;;;1.57;100.00;101424.72;10435421;28;20404;-71
2023/12/06 16:13:55;;;;;;;16.43;12.33;;;;;;;1.58;100.00;101418.28;10439931;28;20105;-72
2023/12/06 16:18:56;;;;;;;17.23;11.75;;;;;;;1.62;100.00;101438.59;10457672;28;20037;-72
2023/12/06 16:23:58;;;;;;;15.52;11.50;;;;;;;1.61;100.00;101448.63;10425123;28;21209;-72
2023/12/06 16:28:59;;;;;;;15.00;12.07;;;;;;;1.59;100.00;101450.66;10421299;28;20032;-73
2023/12/06 16:33:59;;;;;;;15.88;11.52;;;;;;;1.60;100.00;101446.09;10408030;28;20041;-73
2023/12/06 16:39:00;;;;;;;17.27;12.55;;;;;;;1.59;100.00;101453.38;10409962;28;20144;-72
2023/12/06 16:44:00;;;;;;;17.70;11.45;;;;;;;1.58;100.00;101453.56;10425346;28;20140;-72
2023/12/06 16:49:01;;;;;;;17.73;11.97;;;;;;;1.54;100.00;101463.09;10424865;28;20040;-72
2023/12/06 16:54:01;;;;;;;16.63;12.50;;;;;;;1.54;100.00;101471.22;10414871;28;20067;-72
2023/12/06 16:59:02;;;;;;;18.13;12.87;;;;;;;1.60;100.00;101494.94;10424104;28;20040;-73
2023/12/06 17:04:02;;;;;;;19.80;13.30;;;;;;;1.56;100.00;101489.00;10408076;28;20068;-73
2023/12/06 17:09:03;;;;;;;20.07;14.63;;;;;;;1.60;100.00;101494.94;10409641;28;20059;-71
2023/12/06 17:14:04;;;;;;;18.30;13.20;;;;;;;1.56;100.00;101499.03;10438408;28;20077;-73
2023/12/06 17:19:04;;;;;;;22.13;14.07;;;;;;;1.48;100.00;101485.50;10422482;28;20049;-72
2023/12/06 17:24:05;;;;;;;21.00;13.23;;;;;;;1.59;100.00;101504.09;10405374;28;20044;-73
2023/12/06 17:29:06;;;;;;;19.63;14.13;;;;;;;1.54;100.00;101517.38;10406455;28;20428;-73
2023/12/06 17:34:06;;;;;;;22.38;14.45;;;;;;;1.58;100.00;101524.13;10429182;28;20049;-73
2023/12/06 17:39:06;;;;;;;24.87;15.63;;;;;;;1.61;100.00;101537.31;10428187;28;20060;-72
2023/12/06 17:44:07;;;;;;;26.80;16.00;;;;;;;1.60;100.00;101543.78;10423033;28;20045;-73
2023/12/06 17:49:09;;;;;;;24.23;16.27;;;;;;;1.54;100.00;101528.22;10441452;28;20037;-73
2023/12/06 17:54:09;;;;;;;25.43;15.37;;;;;;;1.58;100.00;101538.53;10436573;28;20047;-73
2023/12/06 17:59:10;;;;;;;21.05;14.75;;;;;;;1.26;100.00;101508.84;10426911;28;20046;-73
2023/12/06 18:04:11;;;;;;;20.43;14.77;;;;;;;1.58;100.00;101552.09;10404577;28;20045;-72
2023/12/06 18:09:12;;;;;;;22.52;17.33;;;;;;;1.51;100.00;101539.41;10422905;28;20044;-72
2023/12/06 18:14:13;;;;;;;21.77;15.13;;;;;;;1.54;100.00;101533.66;10410320;28;20037;-72
2023/12/06 18:19:13;;;;;;;20.83;15.13;;;;;;;1.65;100.00;101557.66;10405305;28;20055;-73
2023/12/06 18:24:13;;;;;;;26.20;16.27;;;;;;;1.65;100.00;101565.78;10405302;28;20042;-73
2023/12/06 18:29:14;;;;;;;26.85;15.98;;;;;;;1.60;100.00;101569.06;10424184;28;20094;-73
2023/12/06 18:34:16;;;;;;;27.63;15.93;;;;;;;1.67;100.00;101582.75;10405098;28;20049;-73
2023/12/06 18:39:16;;;;;;;21.17;15.47;;;;;;;1.63;100.00;101581.41;10409114;28;20225;-74
2023/12/06 18:44:17;;;;;;;25.48;14.88;;;;;;;1.70;100.00;101581.56;10406861;28;20045;-73
2023/12/06 18:49:17;;;;;;;24.50;15.30;;;;;;;1.71;100.00;101584.09;10419950;28;20048;-73
2023/12/06 18:54:18;;;;;;;26.23;16.13;;;;;;;1.73;100.00;101578.47;10421612;28;20044;-71
2023/12/06 18:59:19;;;;;;;21.15;14.52;;;;;;;1.73;100.00;101582.03;10409479;28;20052;-73
2023/12/06 19:04:19;;;;;;;29.00;16.73;;;;;;;1.72;100.00;101574.09;10427584;28;20049;-73
2023/12/06 19:09:20;;;;;;;21.67;15.82;;;;;;;1.73;100.00;101582.03;10412980;28;20040;-74
2023/12/06 19:14:20;;;;;;;25.13;16.60;;;;;;;1.72;100.00;101583.06;10393816;28;20037;-74
2023/12/06 19:19:21;;;;;;;24.08;15.65;;;;;;;1.71;100.00;101583.25;10427791;28;20140;-74
2023/12/06 19:24:21;;;;;;;26.52;17.33;;;;;;;1.76;100.00;101600.69;10418802;28;20045;-76
2023/12/06 19:29:22;;;;;;;24.73;18.17;;;;;;;1.77;100.00;101593.38;10443296;28;20065;-75
2023/12/06 19:34:22;;;;;;;24.43;16.27;;;;;;;1.74;100.00;101602.75;10421873;28;20087;-74
2023/12/06 19:39:23;;;;;;;28.88;17.95;;;;;;;1.77;100.00;101604.25;10400092;28;20044;-74
2023/12/06 19:44:24;;;;;;;27.73;18.13;;;;;;;1.77;100.00;101610.53;10443417;28;20075;-74
2023/12/06 19:49:25;;;;;;;28.70;18.30;;;;;;;1.79;100.00;101623.91;10407938;28;20063;-74
2023/12/06 19:54:25;;;;;;;27.77;17.23;;;;;;;1.77;100.00;101615.94;10426204;28;20060;-74
2023/12/06 19:59:26;;;;;;;30.10;19.43;;;;;;;1.78;100.00;101623.09;10425896;28;20041;-74
2023/12/06 20:04:26;;;;;;;31.38;19.25;;;;;;;1.70;100.00;101628.56;10410061;28;20048;-75
2023/12/06 20:09:27;;;;;;;33.83;19.55;;;;;;;1.75;100.00;101626.13;10410966;28;20049;-75
2023/12/06 20:14:27;;;;;;;30.63;19.02;;;;;;;1.64;100.00;101604.84;10411654;28;20037;-75
2023/12/06 20:19:28;;;;;;;31.17;18.97;;;;;;;1.81;100.00;101627.31;10405408;28;20045;-74
2023/12/06 20:24:28;;;;;;;30.13;19.53;;;;;;;1.73;100.00;101619.19;10410889;28;20049;-74
2023/12/06 20:29:29;;;;;;;29.73;20.27;;;;;;;1.80;100.00;101636.50;10388565;28;20037;-74
2023/12/06 20:34:29;;;;;;;33.63;21.33;;;;;;;1.76;100.00;101624.28;10405635;28;20063;-73
2023/12/06 20:39:30;;;;;;;40.20;23.03;;;;;;;1.74;100.00;101643.47;10408718;28;20068;-74
2023/12/06 20:44:30;;;;;;;35.70;22.20;;;;;;;1.78;100.00;101647.53;10395071;28;20036;-75
2023/12/06 20:49:31;;;;;;;36.53;22.10;;;;;;;1.75;100.00;101656.00;10407140;28;20037;-74
2023/12/06 20:54:32;;;;;;;29.00;20.13;;;;;;;1.79;100.00;101668.19;10407509;28;20045;-75
2023/12/06 20:59:32;;;;;;;30.87;19.63;;;;;;;1.80;100.00;101669.91;10408012;28;20048;-74
2023/12/06 21:04:33;;;;;;;34.00;19.67;;;;;;;1.80;100.00;101669.91;10442272;28;20040;-74
2023/12/06 21:09:33;;;;;;;36.30;18.50;;;;;;;1.77;100.00;101653.13;10424933;28;20037;-75
2023/12/06 21:14:34;;;;;;;27.42;17.80;;;;;;;1.79;100.00;101656.50;10407117;28;20037;-74
2023/12/06 21:19:34;;;;;;;28.27;17.17;;;;;;;1.80;100.00;101653.63;10390962;28;20037;-75
2023/12/06 21:24:35;;;;;;;26.33;17.30;;;;;;;1.89;100.00;101676.13;10421156;28;20067;-75
2023/12/06 21:29:37;;;;;;;31.53;20.00;;;;;;;1.84;100.00;101670.41;10386163;28;20346;-75
2023/12/06 21:34:38;;;;;;;24.63;16.23;;;;;;;1.83;100.00;101665.97;10408116;28;20041;-75
2023/12/06 21:39:38;;;;;;;26.80;17.40;;;;;;;1.88;100.00;101670.88;10406997;28;20044;-76
2023/12/06 21:44:39;;;;;;;25.53;16.70;;;;;;;1.90;100.00;101664.25;10419945;28;20052;-75
2023/12/06 21:49:39;;;;;;;27.47;16.30;;;;;;;1.91;100.00;101670.53;10390167;28;20033;-75
2023/12/06 21:54:41;;;;;;;28.57;18.97;;;;;;;1.91;100.00;101670.53;10422703;28;20149;-75
2023/12/06 21:59:41;;;;;;;29.70;18.10;;;;;;;1.91;100.00;101678.69;10406566;28;20041;-75
2023/12/06 22:04:42;;;;;;;30.47;18.67;;;;;;;1.89;100.00;101688.88;10406856;28;20045;-75
2023/12/06 22:09:42;;;;;;;27.17;18.10;;;;;;;1.88;100.00;101679.03;10421985;28;20059;-75
2023/12/06 22:14:43;;;;;;;28.05;18.45;;;;;;;1.91;100.00;101681.41;10404943;28;20070;-75
2023/12/06 22:19:43;;;;;;;27.10;17.90;;;;;;;1.88;100.00;101692.59;10421900;28;20049;-75
2023/12/06 22:24:44;;;;;;;28.75;18.10;;;;;;;1.76;100.00;101684.03;10437470;28;20045;-75
2023/12/06 22:29:44;;;;;;;29.23;18.33;;;;;;;1.75;100.00;101688.56;10384865;28;20104;-75